createdAt,value
2023-01-17T00:00:02.026Z,81.72864497082733
2023-01-17T00:15:01.726Z,81.42684478709661
2023-01-17T00:30:02.394Z,82.3834831808264
2023-01-17T00:45:02.019Z,82.3282073500191
2023-01-17T01:00:01.715Z,82.58436272783386
2023-01-17T01:15:02.355Z,83.04795679707355
2023-01-17T01:30:02.058Z,82.89735500226355
2023-01-17T01:45:01.736Z,82.83546424653704
2023-01-17T02:00:02.407Z,83.07903647304792
2023-01-17T02:15:02.084Z,83.09681686718312
2023-01-17T02:30:01.794Z,82.89097601837494
2023-01-17T02:45:02.437Z,82.84689100996557
2023-01-17T03:00:02.070Z,82.99748974832895
2023-01-17T03:15:01.783Z,82.35531902058041
2023-01-17T03:30:02.456Z,81.45879722810315
2023-01-17T03:45:02.089Z,81.17824296173485
2023-01-17T04:00:01.761Z,81.49276585967752
2023-01-17T04:15:02.432Z,80.54490699148948
2023-01-17T04:30:02.149Z,80.94334098338734
2023-01-17T04:45:01.812Z,81.05422522890218
2023-01-17T05:00:02.455Z,80.85856948264689
2023-01-17T05:15:02.089Z,80.86880447511496
2023-01-17T05:30:02.303Z,81.71027782527365
2023-01-17T05:45:01.954Z,81.57630667827276
2023-01-17T06:00:01.650Z,81.79661386852224
2023-01-17T06:15:02.314Z,81.76515968944295
2023-01-17T06:30:01.988Z,81.71164319728483
2023-01-17T06:45:01.668Z,81.97036074734194
2023-01-17T07:00:02.379Z,81.5444184615357
2023-01-17T07:15:02.075Z,81.0474091356592
2023-01-17T07:30:01.847Z,80.94507084712957
2023-01-17T07:45:02.544Z,80.99478156502333
2023-01-17T08:00:02.271Z,80.6094938597847
2023-01-17T08:15:01.935Z,80.62875725377612
2023-01-17T08:30:01.601Z,80.72206608941049
2023-01-17T08:45:02.314Z,80.66421763016221
2023-01-17T09:00:02.037Z,80.67354407550272
2023-01-17T09:15:01.738Z,80.72292493699867
2023-01-17T09:30:02.427Z,81.2808091403206
2023-01-17T09:45:02.094Z,81.50619669385685
2023-01-17T10:00:03.968Z,81.26773315690255
2023-01-17T10:15:01.878Z,81.26465030635731
2023-01-17T10:30:01.598Z,81.01579203368857
2023-01-17T10:45:02.298Z,80.85274706830467
2023-01-17T11:00:02.028Z,80.8257279646937
2023-01-17T11:15:01.778Z,80.09385552946432
2023-01-17T11:30:02.492Z,79.54930244835131
2023-01-17T11:45:02.149Z,79.38314521934292
2023-01-17T12:00:01.788Z,79.10044475711625
2023-01-17T12:15:02.554Z,78.6110681061365
2023-01-17T12:30:02.323Z,78.27688109331491
2023-01-17T12:45:01.981Z,78.02470779107618
2023-01-17T13:00:01.673Z,77.80456961749954
2023-01-17T13:15:02.341Z,77.87401995824044
2023-01-17T13:30:02.115Z,77.42439342829992
2023-01-17T13:45:01.741Z,77.25784491009038
2023-01-17T14:00:02.406Z,76.83449201629294
2023-01-17T14:15:02.090Z,75.87369858724621
2023-01-17T14:30:01.801Z,76.37477924414394
2023-01-17T14:45:02.521Z,76.27658373965824
2023-01-17T15:00:02.172Z,76.23523191975795
2023-01-17T15:15:01.820Z,76.45572438637436
2023-01-17T15:30:02.786Z,76.18240053558732
2023-01-17T15:45:02.550Z,76.10398358214306
2023-01-17T16:00:02.300Z,76.37430226570574
2023-01-17T16:15:12.430Z,76.37497387826441
2023-01-17T16:30:01.900Z,76.62971650497447
2023-01-17T16:45:02.641Z,76.7829023734163
2023-01-17T17:00:02.297Z,76.88405287977938
2023-01-17T17:15:01.975Z,77.07706705052537
2023-01-17T17:30:01.689Z,77.23518973437233
2023-01-17T17:45:02.327Z,77.30205386082866
2023-01-17T18:00:02.060Z,77.46645823803034
2023-01-17T18:15:01.718Z,77.58004068502107
2023-01-17T18:30:02.398Z,77.4428633046606
2023-01-17T18:45:02.072Z,77.52240145633273
2023-01-17T19:00:01.763Z,77.30990220228243
2023-01-17T19:15:02.482Z,77.19107825706655
2023-01-17T19:30:02.140Z,77.00600392807979
2023-01-17T19:45:01.789Z,77.06450273670582
2023-01-17T20:00:02.447Z,77.1566204830463
2023-01-17T20:15:02.069Z,77.25347305373866
2023-01-17T20:30:18.557Z,77.30215039692942
2023-01-17T20:45:02.183Z,77.24425492759781
2023-01-17T21:00:01.853Z,79.2484748999298
2023-01-17T21:15:02.537Z,79.96125030898197
2023-01-17T21:30:02.290Z,78.34351476312244
2023-01-17T21:45:01.933Z,77.98577820351596
2023-01-17T22:00:01.656Z,77.6755890854694
2023-01-17T22:15:02.351Z,78.97607177281321
2023-01-17T22:30:02.060Z,77.82739685656145
2023-01-17T22:45:01.722Z,77.6926161265268
2023-01-17T23:00:02.461Z,77.68543945547557
2023-01-17T23:15:02.146Z,78.0731313348268
2023-01-17T23:30:01.862Z,77.80404270651191
2023-01-17T23:45:02.509Z,79.6050838690846
